Linden, NJ

10:14 AM EST on November 24, 2014 (GMT -0500)
(Church St. near Rahway River) | Change Station
CLOSE
Current Station
Personal Weather Station
Location: Rahway, NJ
Elevation: 20 ft
Nearby Weather Stations

Elev 20 ft 40.61 °N, 74.28 °W | Updated 5 seconds ago

Mostly Cloudy
Mostly Cloudy
67.4 °F
Feels Like 67.4 °F
N
5.0
Wind Variable Wind from SSW
Gusts 11.0 mph

Today
High -- | Low -- °F
--% Chance of Precip.
Yesterday
High -- | Low -- °F
Precip. -- in
6:53 AM 4:33 PM
Waxing Crescent, 5% visible
Pressure 29.68 in
Visibility 10.0 miles
Clouds Scattered Clouds 2200 ft
Scattered Clouds 2800 ft
Mostly Cloudy 4300 ft
Dew Point 64 °F
Humidity 89%
Rainfall 0.00 in
Snow Depth Not available.
UV 1 out of 12
Pollen .10 out of 12
Air Quality Not available.
Flu Activity Not available.
METAR KLDJ 241515Z AUTO 22007KT 10SM SCT022 SCT028 BKN043 22/19 A2968 RMK AO2 T02170185

More Conditions Fewer Conditions

Pressure 29.68 in
Visibility 10.0 miles
Clouds Scattered Clouds 2200 ft
Scattered Clouds 2800 ft
Mostly Cloudy 4300 ft
Dew Point 64 °F
Humidity 89%
Rainfall 0.00 in
Snow Depth Not available.
UV 1 out of 12
Pollen .10 out of 12
Air Quality Not available.
Flu Activity Not available.
METAR KLDJ 241515Z AUTO 22007KT 10SM SCT022 SCT028 BKN043 22/19 A2968 RMK AO2 T02170185

More Conditions Fewer Conditions

10-Day Weather Forecast

Almanac

Astronomy

Nov. 24, 2014 Rise Set
Actual Time
Civil Twilight
Nautical Twilight
Astronomical Twilight
Moon
Length of Visible Light
Length of Day
Tomorrow will be .
, % of the Moon is Illuminated

Today's Extremes

State Highs State Lows

Community

WunderPhotos

Upload Photos

1,773,360 photos uploaded!

WunderBlogs® & News

Nearby

Air Quality

  Air Quality AQ Index Pollutant
Not available.

Snow Depth

Station Depth Elevation

Earthquake Activity

City Distance Mag. Time & Date
Minimum magnitude displayed is 2.5.

Coastal Water Temperatures

Place Temperature

Nearby Weather Stations